TimeCST,TemperatureF,Dew PointF,Humidity,Sea Level PressureIn,VisibilityMPH,Wind Direction,Wind SpeedMPH,Gust SpeedMPH,PrecipitationIn,Events,Conditions,WindDirDegrees,DateUTC
12:00 AM,64.4,59.0,83,30.36,-9999.0,North,4.6,-,N/A,,Clear,360,2013-08-01 06:00:00
1:00 AM,62.6,59.0,88,30.33,6.2,North,4.6,-,N/A,,Partly Cloudy,360,2013-08-01 07:00:00
2:00 AM,62.6,60.8,94,30.30,6.2,North,6.9,-,N/A,,Mostly Cloudy,360,2013-08-01 08:00:00
3:00 AM,62.6,60.8,94,30.30,6.2,NNE,9.2,-,N/A,,Scattered Clouds,20,2013-08-01 09:00:00
4:00 AM,62.6,60.8,94,30.30,6.2,NNE,11.5,-,N/A,,Mostly Cloudy,20,2013-08-01 10:00:00
5:00 AM,62.6,59.0,88,30.30,6.2,NNE,11.5,-,N/A,,Mostly Cloudy,20,2013-08-01 11:00:00
6:00 AM,62,60,90,29.99,25,NNE,9.2,,,,Overcast,20,2013-08-01 12:00:00
6:00 AM,62.6,60.8,94,30.30,6.2,NNE,9.2,-,N/A,,Overcast,20,2013-08-01 12:00:00
6:17 AM,-9999,-9999,N/A,-9999,6.2,North,9.2,-,N/A,,Scattered Clouds,360,2013-08-01 12:17:00
7:00 AM,62.6,59.0,88,30.30,6.2,NNE,9.2,-,N/A,,Mostly Cloudy,30,2013-08-01 13:00:00
8:00 AM,66.2,59.0,78,30.33,6.2,North,9.2,-,N/A,,Scattered Clouds,360,2013-08-01 14:00:00
9:00 AM,69.8,59.0,68,30.33,6.2,North,9.2,-,N/A,,Scattered Clouds,360,2013-08-01 15:00:00
10:00 AM,69.8,59.0,68,30.33,6.2,North,9.2,-,N/A,,Mostly Cloudy,360,2013-08-01 16:00:00
11:00 AM,73.4,59.0,61,30.33,6.2,NNE,11.5,-,N/A,,Scattered Clouds,30,2013-08-01 17:00:00
12:00 PM,75.2,57.2,53,30.30,6.2,North,13.8,-,N/A,,Scattered Clouds,360,2013-08-01 18:00:00
1:00 PM,77.0,57.2,50,30.30,6.2,NNE,9.2,-,N/A,,Scattered Clouds,30,2013-08-01 19:00:00
2:00 PM,77.0,57.2,50,30.27,6.2,North,13.8,-,N/A,,Partly Cloudy,360,2013-08-01 20:00:00
3:00 PM,77.0,57.2,50,30.24,6.2,NNE,9.2,-,N/A,,Partly Cloudy,20,2013-08-01 21:00:00
4:00 PM,77.0,55.4,47,30.21,6.2,North,13.8,-,N/A,,Partly Cloudy,360,2013-08-01 22:00:00
5:00 PM,77.0,59.0,54,30.21,6.2,North,11.5,-,N/A,,Partly Cloudy,360,2013-08-01 23:00:00
5:41 PM,-9999,-9999,N/A,-9999,6.2,South,4.6,-,N/A,Thunderstorm,Thunderstorm,190,2013-08-01 23:41:00
6:00 PM,71.6,62.6,73,30.24,6.2,South,5.8,-,N/A,Thunderstorm,Thunderstorm,180,2013-08-02 00:00:00
6:30 PM,-9999,-9999,N/A,-9999,6.2,SSW,5.8,-,N/A,,Scattered Clouds,200,2013-08-02 00:30:00
7:00 PM,68.0,60.8,78,30.27,-9999.0,North,-9999.0,-,N/A,,Partly Cloudy,0,2013-08-02 01:00:00
8:00 PM,68.0,62.6,83,30.27,6.2,Calm,Calm,-,N/A,,Scattered Clouds,0,2013-08-02 02:00:00
8:25 PM,-9999,-9999,N/A,-9999,6.2,NNE,9.2,-,N/A,,Scattered Clouds,20,2013-08-02 02:25:00
9:00 PM,68.0,60.8,78,30.30,6.2,NNE,6.9,-,N/A,,Scattered Clouds,20,2013-08-02 03:00:00
10:00 PM,66.2,60.8,83,30.33,6.2,North,9.2,-,N/A,,Scattered Clouds,10,2013-08-02 04:00:00
11:00 PM,66.2,60.8,83,30.33,6.2,North,6.9,-,N/A,,Partly Cloudy,360,2013-08-02 05:00:00